sensor_id;sensor_type;location;lat;lon;timestamp;P1;durP1;ratioP1;P2;durP2;ratioP2
14326;SDS011;7247;53.330;-1.180;2022-10-01T00:01:58;27.20;;;6.70;;
14326;SDS011;7247;53.330;-1.180;2022-10-01T00:04:26;19.00;;;6.63;;
14326;SDS011;7247;53.330;-1.180;2022-10-01T00:06:53;20.33;;;7.07;;
14326;SDS011;7247;53.330;-1.180;2022-10-01T00:09:23;20.00;;;6.70;;
14326;SDS011;7247;53.330;-1.180;2022-10-01T00:11:51;20.30;;;7.00;;
14326;SDS011;7247;53.330;-1.180;2022-10-01T00:14:18;16.93;;;6.20;;
14326;SDS011;7247;53.330;-1.180;2022-10-01T00:19:31;16.37;;;6.80;;
14326;SDS011;7247;53.330;-1.180;2022-10-01T00:21:57;18.83;;;6.07;;
14326;SDS011;7247;53.330;-1.180;2022-10-01T00:24:24;20.30;;;6.60;;
14326;SDS011;7247;53.330;-1.180;2022-10-01T00:26:51;21.60;;;6.47;;
14326;SDS011;7247;53.330;-1.180;2022-10-01T00:29:18;19.23;;;5.97;;
14326;SDS011;7247;53.330;-1.180;2022-10-01T00:31:44;16.60;;;6.00;;
14326;SDS011;7247;53.330;-1.180;2022-10-01T00:34:11;21.83;;;5.90;;
14326;SDS011;7247;53.330;-1.180;2022-10-01T00:36:40;18.67;;;5.27;;
14326;SDS011;7247;53.330;-1.180;2022-10-01T00:39:08;15.10;;;5.30;;
14326;SDS011;7247;53.330;-1.180;2022-10-01T00:41:35;13.90;;;5.33;;
14326;SDS011;7247;53.330;-1.180;2022-10-01T00:44:02;20.80;;;5.00;;
14326;SDS011;7247;53.330;-1.180;2022-10-01T00:46:32;21.70;;;5.67;;
14326;SDS011;7247;53.330;-1.180;2022-10-01T00:49:02;16.47;;;4.70;;
14326;SDS011;7247;53.330;-1.180;2022-10-01T00:51:33;13.77;;;4.20;;
14326;SDS011;7247;53.330;-1.180;2022-10-01T00:54:04;15.63;;;4.70;;
14326;SDS011;7247;53.330;-1.180;2022-10-01T00:56:33;19.77;;;3.90;;
14326;SDS011;7247;53.330;-1.180;2022-10-01T00:59:00;10.23;;;4.00;;
14326;SDS011;7247;53.330;-1.180;2022-10-01T01:01:27;12.73;;;3.97;;
14326;SDS011;7247;53.330;-1.180;2022-10-01T01:03:53;14.97;;;4.00;;
14326;SDS011;7247;53.330;-1.180;2022-10-01T01:06:21;14.07;;;3.10;;
14326;SDS011;7247;53.330;-1.180;2022-10-01T01:08:48;14.57;;;3.53;;
14326;SDS011;7247;53.330;-1.180;2022-10-01T01:11:23;10.20;;;3.20;;
14326;SDS011;7247;53.330;-1.180;2022-10-01T01:13:54;15.63;;;3.63;;
14326;SDS011;7247;53.330;-1.180;2022-10-01T01:16:24;18.40;;;3.40;;
14326;SDS011;7247;53.330;-1.180;2022-10-01T01:18:53;12.10;;;3.40;;
14326;SDS011;7247;53.330;-1.180;2022-10-01T01:21:24;12.87;;;3.40;;
14326;SDS011;7247;53.330;-1.180;2022-10-01T01:26:43;10.13;;;2.67;;
14326;SDS011;7247;53.330;-1.180;2022-10-01T01:29:13;14.23;;;3.53;;
14326;SDS011;7247;53.330;-1.180;2022-10-01T01:31:45;14.63;;;3.30;;
14326;SDS011;7247;53.330;-1.180;2022-10-01T01:34:13;12.27;;;2.60;;
14326;SDS011;7247;53.330;-1.180;2022-10-01T01:36:42;11.47;;;2.70;;
14326;SDS011;7247;53.330;-1.180;2022-10-01T01:39:10;7.60;;;2.63;;
14326;SDS011;7247;53.330;-1.180;2022-10-01T01:41:39;6.37;;;2.50;;
14326;SDS011;7247;53.330;-1.180;2022-10-01T01:44:08;8.57;;;2.33;;
14326;SDS011;7247;53.330;-1.180;2022-10-01T01:46:40;10.87;;;2.83;;
14326;SDS011;7247;53.330;-1.180;2022-10-01T01:49:08;10.60;;;2.60;;
14326;SDS011;7247;53.330;-1.180;2022-10-01T01:51:37;10.13;;;2.33;;
14326;SDS011;7247;53.330;-1.180;2022-10-01T01:54:06;11.17;;;2.63;;
14326;SDS011;7247;53.330;-1.180;2022-10-01T01:56:33;9.07;;;2.27;;
14326;SDS011;7247;53.330;-1.180;2022-10-01T01:59:00;8.10;;;2.20;;
14326;SDS011;7247;53.330;-1.180;2022-10-01T02:01:31;9.27;;;2.03;;
14326;SDS011;7247;53.330;-1.180;2022-10-01T02:03:59;7.67;;;1.97;;
14326;SDS011;7247;53.330;-1.180;2022-10-01T02:06:27;12.20;;;2.37;;
14326;SDS011;7247;53.330;-1.180;2022-10-01T02:08:56;7.73;;;1.70;;
14326;SDS011;7247;53.330;-1.180;2022-10-01T02:11:25;9.20;;;2.57;;
14326;SDS011;7247;53.330;-1.180;2022-10-01T02:13:58;13.60;;;3.00;;
14326;SDS011;7247;53.330;-1.180;2022-10-01T02:16:29;9.17;;;2.53;;
14326;SDS011;7247;53.330;-1.180;2022-10-01T02:18:59;8.63;;;2.07;;
14326;SDS011;7247;53.330;-1.180;2022-10-01T02:21:30;9.17;;;2.30;;
14326;SDS011;7247;53.330;-1.180;2022-10-01T02:23:59;9.17;;;2.17;;
14326;SDS011;7247;53.330;-1.180;2022-10-01T02:26:26;8.20;;;2.10;;
14326;SDS011;7247;53.330;-1.180;2022-10-01T02:28:54;10.93;;;2.70;;
14326;SDS011;7247;53.330;-1.180;2022-10-01T02:31:22;16.73;;;2.77;;
14326;SDS011;7247;53.330;-1.180;2022-10-01T02:33:49;10.23;;;3.27;;
14326;SDS011;7247;53.330;-1.180;2022-10-01T02:36:17;11.07;;;2.47;;
14326;SDS011;7247;53.330;-1.180;2022-10-01T02:38:45;11.03;;;2.87;;
14326;SDS011;7247;53.330;-1.180;2022-10-01T02:41:15;10.07;;;2.47;;
14326;SDS011;7247;53.330;-1.180;2022-10-01T02:43:44;7.63;;;2.47;;
14326;SDS011;7247;53.330;-1.180;2022-10-01T02:49:01;9.57;;;2.47;;
14326;SDS011;7247;53.330;-1.180;2022-10-01T02:51:32;10.73;;;2.40;;
14326;SDS011;7247;53.330;-1.180;2022-10-01T02:54:02;9.83;;;2.23;;
14326;SDS011;7247;53.330;-1.180;2022-10-01T02:56:33;11.43;;;2.53;;
14326;SDS011;7247;53.330;-1.180;2022-10-01T02:59:19;13.77;;;2.80;;
14326;SDS011;7247;53.330;-1.180;2022-10-01T03:01:46;10.23;;;2.50;;
14326;SDS011;7247;53.330;-1.180;2022-10-01T03:04:12;13.23;;;2.57;;
14326;SDS011;7247;53.330;-1.180;2022-10-01T03:06:42;11.73;;;3.30;;
14326;SDS011;7247;53.330;-1.180;2022-10-01T03:09:09;11.97;;;3.40;;
14326;SDS011;7247;53.330;-1.180;2022-10-01T03:11:35;9.40;;;2.90;;
14326;SDS011;7247;53.330;-1.180;2022-10-01T03:14:02;9.30;;;4.07;;
14326;SDS011;7247;53.330;-1.180;2022-10-01T03:16:31;12.10;;;3.57;;
14326;SDS011;7247;53.330;-1.180;2022-10-01T03:18:58;10.17;;;3.10;;
14326;SDS011;7247;53.330;-1.180;2022-10-01T03:21:24;13.83;;;2.83;;
14326;SDS011;7247;53.330;-1.180;2022-10-01T03:23:52;13.97;;;3.43;;
14326;SDS011;7247;53.330;-1.180;2022-10-01T03:26:19;12.67;;;3.43;;
14326;SDS011;7247;53.330;-1.180;2022-10-01T03:28:45;10.70;;;3.03;;
14326;SDS011;7247;53.330;-1.180;2022-10-01T03:31:12;12.77;;;3.20;;
14326;SDS011;7247;53.330;-1.180;2022-10-01T03:33:38;13.90;;;3.57;;
14326;SDS011;7247;53.330;-1.180;2022-10-01T03:36:07;13.53;;;3.93;;
14326;SDS011;7247;53.330;-1.180;2022-10-01T03:38:34;14.20;;;4.07;;
14326;SDS011;7247;53.330;-1.180;2022-10-01T03:41:01;13.70;;;5.03;;
14326;SDS011;7247;53.330;-1.180;2022-10-01T03:43:28;11.30;;;4.37;;
14326;SDS011;7247;53.330;-1.180;2022-10-01T03:45:54;12.63;;;3.70;;
14326;SDS011;7247;53.330;-1.180;2022-10-01T03:48:21;15.60;;;3.67;;
14326;SDS011;7247;53.330;-1.180;2022-10-01T03:50:53;11.83;;;3.67;;
14326;SDS011;7247;53.330;-1.180;2022-10-01T03:53:20;20.77;;;4.50;;
14326;SDS011;7247;53.330;-1.180;2022-10-01T03:55:46;12.80;;;4.10;;
14326;SDS011;7247;53.330;-1.180;2022-10-01T03:58:14;14.90;;;4.10;;
14326;SDS011;7247;53.330;-1.180;2022-10-01T04:00:43;17.23;;;4.40;;
14326;SDS011;7247;53.330;-1.180;2022-10-01T04:03:09;13.13;;;4.50;;
14326;SDS011;7247;53.330;-1.180;2022-10-01T04:05:36;18.90;;;4.87;;
14326;SDS011;7247;53.330;-1.180;2022-10-01T04:08:03;14.23;;;4.50;;
14326;SDS011;7247;53.330;-1.180;2022-10-01T04:10:29;15.30;;;5.00;;
14326;SDS011;7247;53.330;-1.180;2022-10-01T04:12:56;14.27;;;4.50;;
14326;SDS011;7247;53.330;-1.180;2022-10-01T04:15:23;13.63;;;4.60;;
14326;SDS011;7247;53.330;-1.180;2022-10-01T04:20:35;16.77;;;4.40;;
14326;SDS011;7247;53.330;-1.180;2022-10-01T04:23:02;16.23;;;4.57;;
14326;SDS011;7247;53.330;-1.180;2022-10-01T04:25:29;15.30;;;4.43;;
14326;SDS011;7247;53.330;-1.180;2022-10-01T04:27:57;15.67;;;4.03;;
14326;SDS011;7247;53.330;-1.180;2022-10-01T04:30:25;22.83;;;4.70;;
14326;SDS011;7247;53.330;-1.180;2022-10-01T04:32:52;17.30;;;4.43;;
14326;SDS011;7247;53.330;-1.180;2022-10-01T04:35:19;17.20;;;4.13;;
14326;SDS011;7247;53.330;-1.180;2022-10-01T04:37:47;14.53;;;3.87;;
14326;SDS011;7247;53.330;-1.180;2022-10-01T04:40:14;13.67;;;4.10;;
14326;SDS011;7247;53.330;-1.180;2022-10-01T04:42:41;18.43;;;4.20;;
14326;SDS011;7247;53.330;-1.180;2022-10-01T04:45:08;14.70;;;3.63;;
14326;SDS011;7247;53.330;-1.180;2022-10-01T04:47:36;22.33;;;4.77;;
14326;SDS011;7247;53.330;-1.180;2022-10-01T04:50:03;20.10;;;5.00;;
14326;SDS011;7247;53.330;-1.180;2022-10-01T04:52:30;13.53;;;3.83;;
14326;SDS011;7247;53.330;-1.180;2022-10-01T04:54:56;15.53;;;4.13;;
14326;SDS011;7247;53.330;-1.180;2022-10-01T04:57:24;13.50;;;3.90;;
14326;SDS011;7247;53.330;-1.180;2022-10-01T04:59:50;19.07;;;4.13;;
14326;SDS011;7247;53.330;-1.180;2022-10-01T05:02:17;20.90;;;4.00;;
14326;SDS011;7247;53.330;-1.180;2022-10-01T05:04:45;15.60;;;3.13;;
14326;SDS011;7247;53.330;-1.180;2022-10-01T05:07:11;14.73;;;3.57;;
14326;SDS011;7247;53.330;-1.180;2022-10-01T05:09:38;18.40;;;3.83;;
14326;SDS011;7247;53.330;-1.180;2022-10-01T05:12:04;17.07;;;3.43;;
14326;SDS011;7247;53.330;-1.180;2022-10-01T05:14:32;9.93;;;3.10;;
14326;SDS011;7247;53.330;-1.180;2022-10-01T05:16:59;18.67;;;3.30;;
14326;SDS011;7247;53.330;-1.180;2022-10-01T05:19:25;18.27;;;3.87;;
14326;SDS011;7247;53.330;-1.180;2022-10-01T05:21:54;15.20;;;4.10;;
14326;SDS011;7247;53.330;-1.180;2022-10-01T05:24:21;18.40;;;3.43;;
14326;SDS011;7247;53.330;-1.180;2022-10-01T05:26:48;17.27;;;3.47;;
14326;SDS011;7247;53.330;-1.180;2022-10-01T05:29:14;15.17;;;3.73;;
14326;SDS011;7247;53.330;-1.180;2022-10-01T05:31:42;16.53;;;3.93;;
14326;SDS011;7247;53.330;-1.180;2022-10-01T05:34:09;20.70;;;3.77;;
14326;SDS011;7247;53.330;-1.180;2022-10-01T05:39:06;14.03;;;3.90;;
14326;SDS011;7247;53.330;-1.180;2022-10-01T05:41:33;19.13;;;3.43;;
14326;SDS011;7247;53.330;-1.180;2022-10-01T05:44:00;12.97;;;3.17;;
14326;SDS011;7247;53.330;-1.180;2022-10-01T05:46:27;17.90;;;3.83;;
14326;SDS011;7247;53.330;-1.180;2022-10-01T05:48:53;11.77;;;3.47;;
14326;SDS011;7247;53.330;-1.180;2022-10-01T05:51:20;11.80;;;3.13;;
14326;SDS011;7247;53.330;-1.180;2022-10-01T05:53:46;11.13;;;2.73;;
14326;SDS011;7247;53.330;-1.180;2022-10-01T05:59:02;10.93;;;2.90;;
14326;SDS011;7247;53.330;-1.180;2022-10-01T06:01:28;13.17;;;3.07;;
14326;SDS011;7247;53.330;-1.180;2022-10-01T06:03:56;11.13;;;3.10;;
14326;SDS011;7247;53.330;-1.180;2022-10-01T06:06:22;15.93;;;3.50;;
14326;SDS011;7247;53.330;-1.180;2022-10-01T06:08:49;16.17;;;3.37;;
14326;SDS011;7247;53.330;-1.180;2022-10-01T06:11:16;13.97;;;2.70;;
14326;SDS011;7247;53.330;-1.180;2022-10-01T06:13:42;15.30;;;3.37;;
14326;SDS011;7247;53.330;-1.180;2022-10-01T06:16:13;15.83;;;3.20;;
14326;SDS011;7247;53.330;-1.180;2022-10-01T06:18:40;20.27;;;4.50;;
14326;SDS011;7247;53.330;-1.180;2022-10-01T06:21:07;18.13;;;3.40;;
14326;SDS011;7247;53.330;-1.180;2022-10-01T06:23:34;19.57;;;3.93;;
14326;SDS011;7247;53.330;-1.180;2022-10-01T06:26:01;15.73;;;3.33;;
14326;SDS011;7247;53.330;-1.180;2022-10-01T06:28:29;13.50;;;3.57;;
14326;SDS011;7247;53.330;-1.180;2022-10-01T06:30:56;12.50;;;2.90;;
14326;SDS011;7247;53.330;-1.180;2022-10-01T06:33:24;12.63;;;2.90;;
14326;SDS011;7247;53.330;-1.180;2022-10-01T06:35:51;13.87;;;2.90;;
14326;SDS011;7247;53.330;-1.180;2022-10-01T06:38:18;22.47;;;3.87;;
14326;SDS011;7247;53.330;-1.180;2022-10-01T06:40:49;14.13;;;2.83;;
14326;SDS011;7247;53.330;-1.180;2022-10-01T06:43:16;14.10;;;2.70;;
14326;SDS011;7247;53.330;-1.180;2022-10-01T06:45:42;11.43;;;2.80;;
14326;SDS011;7247;53.330;-1.180;2022-10-01T06:48:10;12.13;;;3.00;;
14326;SDS011;7247;53.330;-1.180;2022-10-01T06:50:40;16.63;;;3.30;;
14326;SDS011;7247;53.330;-1.180;2022-10-01T06:53:06;15.07;;;2.97;;
14326;SDS011;7247;53.330;-1.180;2022-10-01T06:55:34;15.83;;;3.20;;
14326;SDS011;7247;53.330;-1.180;2022-10-01T06:58:02;16.87;;;3.53;;
14326;SDS011;7247;53.330;-1.180;2022-10-01T07:00:30;13.77;;;2.80;;
14326;SDS011;7247;53.330;-1.180;2022-10-01T07:02:56;11.43;;;2.77;;
14326;SDS011;7247;53.330;-1.180;2022-10-01T07:05:23;16.43;;;2.87;;
14326;SDS011;7247;53.330;-1.180;2022-10-01T07:07:54;19.10;;;3.10;;
14326;SDS011;7247;53.330;-1.180;2022-10-01T07:10:20;17.57;;;3.13;;
14326;SDS011;7247;53.330;-1.180;2022-10-01T07:12:47;14.57;;;3.70;;
14326;SDS011;7247;53.330;-1.180;2022-10-01T07:15:14;15.10;;;3.10;;
14326;SDS011;7247;53.330;-1.180;2022-10-01T07:17:41;17.67;;;3.30;;
14326;SDS011;7247;53.330;-1.180;2022-10-01T07:20:09;12.73;;;3.30;;
14326;SDS011;7247;53.330;-1.180;2022-10-01T07:22:35;11.63;;;3.03;;
14326;SDS011;7247;53.330;-1.180;2022-10-01T07:25:03;16.93;;;2.97;;
14326;SDS011;7247;53.330;-1.180;2022-10-01T07:27:30;14.40;;;3.07;;
14326;SDS011;7247;53.330;-1.180;2022-10-01T07:29:57;15.23;;;3.10;;
14326;SDS011;7247;53.330;-1.180;2022-10-01T07:32:23;15.00;;;3.13;;
14326;SDS011;7247;53.330;-1.180;2022-10-01T07:34:50;9.93;;;3.00;;
14326;SDS011;7247;53.330;-1.180;2022-10-01T07:37:16;14.50;;;3.20;;
14326;SDS011;7247;53.330;-1.180;2022-10-01T07:39:43;12.60;;;3.00;;
14326;SDS011;7247;53.330;-1.180;2022-10-01T07:42:11;15.03;;;3.37;;
14326;SDS011;7247;53.330;-1.180;2022-10-01T07:44:37;11.27;;;2.87;;
14326;SDS011;7247;53.330;-1.180;2022-10-01T07:47:04;11.53;;;3.17;;
14326;SDS011;7247;53.330;-1.180;2022-10-01T07:49:30;14.00;;;2.70;;
14326;SDS011;7247;53.330;-1.180;2022-10-01T07:51:57;14.77;;;2.90;;
14326;SDS011;7247;53.330;-1.180;2022-10-01T07:54:24;12.17;;;2.60;;
14326;SDS011;7247;53.330;-1.180;2022-10-01T07:59:38;13.30;;;2.70;;
14326;SDS011;7247;53.330;-1.180;2022-10-01T08:02:08;10.60;;;3.57;;
14326;SDS011;7247;53.330;-1.180;2022-10-01T08:04:36;9.87;;;2.90;;
14326;SDS011;7247;53.330;-1.180;2022-10-01T08:07:20;14.10;;;3.10;;
14326;SDS011;7247;53.330;-1.180;2022-10-01T08:09:47;11.67;;;2.77;;
14326;SDS011;7247;53.330;-1.180;2022-10-01T08:12:13;9.93;;;2.83;;
14326;SDS011;7247;53.330;-1.180;2022-10-01T08:14:43;12.17;;;2.93;;
14326;SDS011;7247;53.330;-1.180;2022-10-01T08:17:11;13.67;;;2.97;;
14326;SDS011;7247;53.330;-1.180;2022-10-01T08:19:37;10.47;;;2.43;;
14326;SDS011;7247;53.330;-1.180;2022-10-01T08:22:04;11.20;;;2.80;;
14326;SDS011;7247;53.330;-1.180;2022-10-01T08:24:31;12.80;;;2.70;;
14326;SDS011;7247;53.330;-1.180;2022-10-01T08:26:59;8.20;;;2.33;;
14326;SDS011;7247;53.330;-1.180;2022-10-01T08:29:26;9.27;;;2.83;;
14326;SDS011;7247;53.330;-1.180;2022-10-01T08:31:54;11.60;;;2.67;;
14326;SDS011;7247;53.330;-1.180;2022-10-01T08:34:20;15.67;;;2.80;;
14326;SDS011;7247;53.330;-1.180;2022-10-01T08:36:48;12.10;;;2.97;;
14326;SDS011;7247;53.330;-1.180;2022-10-01T08:39:16;10.40;;;2.63;;
14326;SDS011;7247;53.330;-1.180;2022-10-01T08:41:44;8.40;;;2.13;;
14326;SDS011;7247;53.330;-1.180;2022-10-01T08:44:15;10.57;;;2.57;;
14326;SDS011;7247;53.330;-1.180;2022-10-01T08:46:44;9.93;;;2.80;;
14326;SDS011;7247;53.330;-1.180;2022-10-01T08:49:14;13.47;;;2.47;;
14326;SDS011;7247;53.330;-1.180;2022-10-01T08:51:45;8.60;;;2.20;;
14326;SDS011;7247;53.330;-1.180;2022-10-01T08:54:18;10.17;;;2.63;;
14326;SDS011;7247;53.330;-1.180;2022-10-01T08:56:47;11.50;;;2.63;;
14326;SDS011;7247;53.330;-1.180;2022-10-01T08:59:16;10.70;;;2.57;;
14326;SDS011;7247;53.330;-1.180;2022-10-01T09:01:47;8.70;;;2.43;;
14326;SDS011;7247;53.330;-1.180;2022-10-01T09:04:15;12.53;;;2.80;;
14326;SDS011;7247;53.330;-1.180;2022-10-01T09:06:41;12.30;;;3.00;;
14326;SDS011;7247;53.330;-1.180;2022-10-01T09:09:22;9.03;;;2.47;;
14326;SDS011;7247;53.330;-1.180;2022-10-01T09:11:53;17.20;;;2.90;;
14326;SDS011;7247;53.330;-1.180;2022-10-01T09:14:29;17.23;;;3.03;;
14326;SDS011;7247;53.330;-1.180;2022-10-01T09:17:02;6.73;;;2.30;;
14326;SDS011;7247;53.330;-1.180;2022-10-01T09:19:39;10.70;;;2.80;;
14326;SDS011;7247;53.330;-1.180;2022-10-01T09:22:10;6.87;;;2.40;;
14326;SDS011;7247;53.330;-1.180;2022-10-01T09:24:40;13.07;;;2.80;;
14326;SDS011;7247;53.330;-1.180;2022-10-01T09:27:10;9.93;;;3.03;;
14326;SDS011;7247;53.330;-1.180;2022-10-01T09:29:38;8.97;;;2.37;;
14326;SDS011;7247;53.330;-1.180;2022-10-01T09:32:05;10.20;;;2.60;;
14326;SDS011;7247;53.330;-1.180;2022-10-01T09:34:33;7.90;;;2.40;;
14326;SDS011;7247;53.330;-1.180;2022-10-01T09:37:02;9.47;;;2.20;;
14326;SDS011;7247;53.330;-1.180;2022-10-01T09:39:37;11.40;;;2.80;;
14326;SDS011;7247;53.330;-1.180;2022-10-01T09:42:05;11.93;;;2.77;;
14326;SDS011;7247;53.330;-1.180;2022-10-01T09:44:32;11.77;;;2.83;;
14326;SDS011;7247;53.330;-1.180;2022-10-01T09:47:00;12.40;;;2.90;;
14326;SDS011;7247;53.330;-1.180;2022-10-01T09:49:27;9.33;;;3.53;;
14326;SDS011;7247;53.330;-1.180;2022-10-01T09:51:56;8.50;;;2.97;;
14326;SDS011;7247;53.330;-1.180;2022-10-01T09:54:28;10.33;;;3.10;;
14326;SDS011;7247;53.330;-1.180;2022-10-01T09:56:57;8.93;;;2.90;;
14326;SDS011;7247;53.330;-1.180;2022-10-01T09:59:26;10.23;;;2.70;;
14326;SDS011;7247;53.330;-1.180;2022-10-01T10:01:55;12.37;;;3.40;;
14326;SDS011;7247;53.330;-1.180;2022-10-01T10:04:22;10.13;;;2.43;;
14326;SDS011;7247;53.330;-1.180;2022-10-01T10:06:49;6.73;;;2.13;;
14326;SDS011;7247;53.330;-1.180;2022-10-01T10:09:17;7.90;;;2.13;;
14326;SDS011;7247;53.330;-1.180;2022-10-01T10:11:47;8.87;;;2.60;;
14326;SDS011;7247;53.330;-1.180;2022-10-01T10:14:15;8.87;;;2.30;;
14326;SDS011;7247;53.330;-1.180;2022-10-01T10:19:14;7.50;;;2.50;;
14326;SDS011;7247;53.330;-1.180;2022-10-01T10:21:48;9.03;;;2.40;;
14326;SDS011;7247;53.330;-1.180;2022-10-01T10:24:23;9.43;;;2.27;;
14326;SDS011;7247;53.330;-1.180;2022-10-01T10:26:52;8.30;;;2.10;;
14326;SDS011;7247;53.330;-1.180;2022-10-01T10:29:26;5.63;;;2.17;;
14326;SDS011;7247;53.330;-1.180;2022-10-01T10:31:54;8.73;;;2.50;;
14326;SDS011;7247;53.330;-1.180;2022-10-01T10:34:22;8.17;;;2.70;;
14326;SDS011;7247;53.330;-1.180;2022-10-01T10:36:55;6.00;;;2.37;;
14326;SDS011;7247;53.330;-1.180;2022-10-01T10:39:23;12.37;;;3.03;;
14326;SDS011;7247;53.330;-1.180;2022-10-01T10:41:51;4.90;;;1.90;;
14326;SDS011;7247;53.330;-1.180;2022-10-01T10:44:18;5.63;;;1.90;;
14326;SDS011;7247;53.330;-1.180;2022-10-01T10:46:47;7.93;;;2.10;;
14326;SDS011;7247;53.330;-1.180;2022-10-01T10:49:16;12.13;;;2.67;;
14326;SDS011;7247;53.330;-1.180;2022-10-01T10:51:45;7.50;;;2.50;;
14326;SDS011;7247;53.330;-1.180;2022-10-01T10:54:20;7.40;;;1.80;;
14326;SDS011;7247;53.330;-1.180;2022-10-01T10:56:55;6.97;;;2.20;;
14326;SDS011;7247;53.330;-1.180;2022-10-01T10:59:24;7.37;;;2.30;;
14326;SDS011;7247;53.330;-1.180;2022-10-01T11:01:51;7.97;;;2.23;;
14326;SDS011;7247;53.330;-1.180;2022-10-01T11:04:20;9.40;;;2.60;;
14326;SDS011;7247;53.330;-1.180;2022-10-01T11:06:54;4.87;;;2.13;;
14326;SDS011;7247;53.330;-1.180;2022-10-01T11:09:21;4.43;;;1.80;;
14326;SDS011;7247;53.330;-1.180;2022-10-01T11:11:52;7.63;;;1.97;;
14326;SDS011;7247;53.330;-1.180;2022-10-01T11:14:25;8.37;;;2.70;;
14326;SDS011;7247;53.330;-1.180;2022-10-01T11:17:02;6.83;;;2.17;;
14326;SDS011;7247;53.330;-1.180;2022-10-01T11:19:43;7.00;;;2.20;;
14326;SDS011;7247;53.330;-1.180;2022-10-01T11:22:17;10.07;;;2.37;;
14326;SDS011;7247;53.330;-1.180;2022-10-01T11:24:55;8.30;;;2.30;;
14326;SDS011;7247;53.330;-1.180;2022-10-01T11:27:25;6.50;;;2.27;;
14326;SDS011;7247;53.330;-1.180;2022-10-01T11:29:56;6.90;;;2.03;;
14326;SDS011;7247;53.330;-1.180;2022-10-01T11:32:27;7.10;;;2.60;;
14326;SDS011;7247;53.330;-1.180;2022-10-01T11:37:49;5.37;;;2.07;;
14326;SDS011;7247;53.330;-1.180;2022-10-01T11:40:25;7.80;;;2.27;;
14326;SDS011;7247;53.330;-1.180;2022-10-01T11:42:53;7.67;;;2.40;;
14326;SDS011;7247;53.330;-1.180;2022-10-01T11:45:23;9.70;;;2.57;;
14326;SDS011;7247;53.330;-1.180;2022-10-01T11:47:53;7.73;;;2.23;;
14326;SDS011;7247;53.330;-1.180;2022-10-01T11:50:22;8.93;;;2.87;;
14326;SDS011;7247;53.330;-1.180;2022-10-01T11:52:51;7.37;;;2.10;;
14326;SDS011;7247;53.330;-1.180;2022-10-01T11:55:19;6.33;;;2.10;;
14326;SDS011;7247;53.330;-1.180;2022-10-01T11:58:05;6.30;;;2.33;;
14326;SDS011;7247;53.330;-1.180;2022-10-01T12:00:54;6.63;;;2.17;;
14326;SDS011;7247;53.330;-1.180;2022-10-01T12:03:24;4.83;;;1.90;;
14326;SDS011;7247;53.330;-1.180;2022-10-01T12:05:54;5.63;;;1.87;;
14326;SDS011;7247;53.330;-1.180;2022-10-01T12:08:22;6.63;;;1.87;;
14326;SDS011;7247;53.330;-1.180;2022-10-01T12:10:52;8.23;;;2.07;;
14326;SDS011;7247;53.330;-1.180;2022-10-01T12:13:24;6.43;;;1.90;;
14326;SDS011;7247;53.330;-1.180;2022-10-01T12:15:54;6.27;;;1.90;;
14326;SDS011;7247;53.330;-1.180;2022-10-01T12:18:23;6.10;;;1.63;;
14326;SDS011;7247;53.330;-1.180;2022-10-01T12:20:51;5.10;;;1.80;;
14326;SDS011;7247;53.330;-1.180;2022-10-01T12:23:19;5.30;;;1.80;;
14326;SDS011;7247;53.330;-1.180;2022-10-01T12:25:48;4.57;;;1.90;;
14326;SDS011;7247;53.330;-1.180;2022-10-01T12:28:19;4.13;;;1.53;;
14326;SDS011;7247;53.330;-1.180;2022-10-01T12:30:48;6.80;;;1.80;;
14326;SDS011;7247;53.330;-1.180;2022-10-01T12:33:31;6.17;;;2.03;;
14326;SDS011;7247;53.330;-1.180;2022-10-01T12:36:03;4.10;;;1.67;;
14326;SDS011;7247;53.330;-1.180;2022-10-01T12:38:38;5.90;;;1.83;;
14326;SDS011;7247;53.330;-1.180;2022-10-01T12:41:13;5.63;;;1.70;;
14326;SDS011;7247;53.330;-1.180;2022-10-01T12:43:52;8.37;;;1.90;;
14326;SDS011;7247;53.330;-1.180;2022-10-01T12:46:25;3.67;;;1.40;;
14326;SDS011;7247;53.330;-1.180;2022-10-01T12:48:58;5.37;;;1.97;;
14326;SDS011;7247;53.330;-1.180;2022-10-01T12:51:36;4.57;;;1.43;;
14326;SDS011;7247;53.330;-1.180;2022-10-01T12:54:05;3.87;;;1.47;;
14326;SDS011;7247;53.330;-1.180;2022-10-01T12:56:35;4.83;;;1.40;;
14326;SDS011;7247;53.330;-1.180;2022-10-01T12:59:05;5.43;;;1.60;;
14326;SDS011;7247;53.330;-1.180;2022-10-01T13:01:36;5.73;;;2.07;;
14326;SDS011;7247;53.330;-1.180;2022-10-01T13:04:19;5.67;;;1.70;;
14326;SDS011;7247;53.330;-1.180;2022-10-01T13:06:56;3.90;;;1.63;;
14326;SDS011;7247;53.330;-1.180;2022-10-01T13:09:28;4.77;;;1.50;;
14326;SDS011;7247;53.330;-1.180;2022-10-01T13:12:05;5.33;;;1.70;;
14326;SDS011;7247;53.330;-1.180;2022-10-01T13:14:37;4.37;;;1.60;;
14326;SDS011;7247;53.330;-1.180;2022-10-01T13:17:05;3.67;;;1.37;;
14326;SDS011;7247;53.330;-1.180;2022-10-01T13:19:37;8.57;;;1.70;;
14326;SDS011;7247;53.330;-1.180;2022-10-01T13:22:06;4.23;;;1.90;;
14326;SDS011;7247;53.330;-1.180;2022-10-01T13:24:39;6.17;;;2.00;;
14326;SDS011;7247;53.330;-1.180;2022-10-01T13:27:09;6.33;;;2.27;;
14326;SDS011;7247;53.330;-1.180;2022-10-01T13:29:42;6.00;;;1.73;;
14326;SDS011;7247;53.330;-1.180;2022-10-01T13:32:28;4.07;;;1.47;;
14326;SDS011;7247;53.330;-1.180;2022-10-01T13:34:58;5.33;;;1.80;;
14326;SDS011;7247;53.330;-1.180;2022-10-01T13:37:32;5.67;;;2.50;;
14326;SDS011;7247;53.330;-1.180;2022-10-01T13:39:59;4.27;;;2.17;;
14326;SDS011;7247;53.330;-1.180;2022-10-01T13:42:26;4.73;;;1.40;;
14326;SDS011;7247;53.330;-1.180;2022-10-01T13:44:54;4.13;;;1.47;;
14326;SDS011;7247;53.330;-1.180;2022-10-01T13:47:22;6.20;;;1.80;;
14326;SDS011;7247;53.330;-1.180;2022-10-01T13:49:57;2.97;;;1.30;;
14326;SDS011;7247;53.330;-1.180;2022-10-01T13:52:24;5.20;;;1.87;;
14326;SDS011;7247;53.330;-1.180;2022-10-01T13:54:51;7.00;;;2.20;;
14326;SDS011;7247;53.330;-1.180;2022-10-01T13:57:27;6.37;;;1.90;;
14326;SDS011;7247;53.330;-1.180;2022-10-01T13:59:58;8.23;;;2.10;;
14326;SDS011;7247;53.330;-1.180;2022-10-01T14:02:29;4.53;;;1.70;;
14326;SDS011;7247;53.330;-1.180;2022-10-01T14:05:03;6.47;;;1.63;;
14326;SDS011;7247;53.330;-1.180;2022-10-01T14:07:32;5.77;;;1.77;;
14326;SDS011;7247;53.330;-1.180;2022-10-01T14:10:01;6.07;;;1.77;;
14326;SDS011;7247;53.330;-1.180;2022-10-01T14:12:28;5.40;;;1.93;;
14326;SDS011;7247;53.330;-1.180;2022-10-01T14:15:13;5.80;;;1.73;;
14326;SDS011;7247;53.330;-1.180;2022-10-01T14:17:59;4.37;;;1.60;;
14326;SDS011;7247;53.330;-1.180;2022-10-01T14:20:31;5.77;;;1.70;;
14326;SDS011;7247;53.330;-1.180;2022-10-01T14:23:02;6.40;;;2.60;;
14326;SDS011;7247;53.330;-1.180;2022-10-01T14:25:33;4.60;;;2.00;;
14326;SDS011;7247;53.330;-1.180;2022-10-01T14:30:48;4.77;;;1.87;;
14326;SDS011;7247;53.330;-1.180;2022-10-01T14:33:28;5.70;;;1.87;;
14326;SDS011;7247;53.330;-1.180;2022-10-01T14:36:02;5.30;;;1.80;;
14326;SDS011;7247;53.330;-1.180;2022-10-01T14:38:31;5.77;;;1.90;;
14326;SDS011;7247;53.330;-1.180;2022-10-01T14:40:58;6.43;;;1.63;;
14326;SDS011;7247;53.330;-1.180;2022-10-01T14:43:26;6.30;;;1.73;;
14326;SDS011;7247;53.330;-1.180;2022-10-01T14:45:54;5.90;;;1.93;;
14326;SDS011;7247;53.330;-1.180;2022-10-01T14:48:21;4.70;;;1.70;;
14326;SDS011;7247;53.330;-1.180;2022-10-01T14:50:48;6.03;;;1.93;;
14326;SDS011;7247;53.330;-1.180;2022-10-01T14:53:17;5.83;;;1.73;;
14326;SDS011;7247;53.330;-1.180;2022-10-01T14:55:45;5.27;;;1.80;;
14326;SDS011;7247;53.330;-1.180;2022-10-01T14:58:16;6.57;;;1.90;;
14326;SDS011;7247;53.330;-1.180;2022-10-01T15:00:46;7.53;;;1.90;;
14326;SDS011;7247;53.330;-1.180;2022-10-01T15:03:14;6.40;;;1.60;;
14326;SDS011;7247;53.330;-1.180;2022-10-01T15:05:41;2.93;;;1.50;;
14326;SDS011;7247;53.330;-1.180;2022-10-01T15:08:09;8.33;;;2.03;;
14326;SDS011;7247;53.330;-1.180;2022-10-01T15:10:38;4.80;;;1.70;;
14326;SDS011;7247;53.330;-1.180;2022-10-01T15:13:06;4.67;;;2.17;;
14326;SDS011;7247;53.330;-1.180;2022-10-01T15:15:33;5.00;;;1.70;;
14326;SDS011;7247;53.330;-1.180;2022-10-01T15:18:06;6.37;;;1.80;;
14326;SDS011;7247;53.330;-1.180;2022-10-01T15:20:33;5.57;;;1.67;;